sensor_id;sensor_type;location;lat;lon;timestamp;P1;durP1;ratioP1;P2;durP2;ratioP2
48613;SDS011;34408;51.426;5.444;2024-03-06T00:01:57;9.88;;;7.60;;
48613;SDS011;34408;51.426;5.444;2024-03-06T00:04:26;12.98;;;8.63;;
48613;SDS011;34408;51.426;5.444;2024-03-06T00:06:54;11.55;;;9.52;;
48613;SDS011;34408;51.426;5.444;2024-03-06T00:09:24;12.32;;;9.30;;
48613;SDS011;34408;51.426;5.444;2024-03-06T00:11:54;12.57;;;9.10;;
48613;SDS011;34408;51.426;5.444;2024-03-06T00:14:23;15.02;;;8.60;;
48613;SDS011;34408;51.426;5.444;2024-03-06T00:16:51;10.48;;;8.27;;
48613;SDS011;34408;51.426;5.444;2024-03-06T00:19:19;12.80;;;8.95;;
48613;SDS011;34408;51.426;5.444;2024-03-06T00:21:47;13.18;;;9.52;;
48613;SDS011;34408;51.426;5.444;2024-03-06T00:24:15;13.70;;;9.00;;
48613;SDS011;34408;51.426;5.444;2024-03-06T00:26:44;12.85;;;8.73;;
48613;SDS011;34408;51.426;5.444;2024-03-06T00:29:14;14.90;;;9.30;;
48613;SDS011;34408;51.426;5.444;2024-03-06T00:31:42;11.80;;;8.52;;
48613;SDS011;34408;51.426;5.444;2024-03-06T00:34:11;11.95;;;8.73;;
48613;SDS011;34408;51.426;5.444;2024-03-06T00:36:40;11.43;;;7.97;;
48613;SDS011;34408;51.426;5.444;2024-03-06T00:39:08;13.77;;;8.88;;
48613;SDS011;34408;51.426;5.444;2024-03-06T00:41:36;10.65;;;8.23;;
48613;SDS011;34408;51.426;5.444;2024-03-06T00:44:04;13.25;;;8.57;;
48613;SDS011;34408;51.426;5.444;2024-03-06T00:46:34;13.43;;;9.05;;
48613;SDS011;34408;51.426;5.444;2024-03-06T00:49:04;11.40;;;8.57;;
48613;SDS011;34408;51.426;5.444;2024-03-06T00:51:32;11.98;;;8.38;;
48613;SDS011;34408;51.426;5.444;2024-03-06T00:54:13;12.18;;;9.15;;
48613;SDS011;34408;51.426;5.444;2024-03-06T00:56:43;13.30;;;9.48;;
48613;SDS011;34408;51.426;5.444;2024-03-06T00:59:10;12.82;;;9.13;;
48613;SDS011;34408;51.426;5.444;2024-03-06T01:01:41;9.95;;;8.02;;
48613;SDS011;34408;51.426;5.444;2024-03-06T01:04:09;12.18;;;8.30;;
48613;SDS011;34408;51.426;5.444;2024-03-06T01:06:37;12.82;;;8.93;;
48613;SDS011;34408;51.426;5.444;2024-03-06T01:09:05;11.77;;;9.18;;
48613;SDS011;34408;51.426;5.444;2024-03-06T01:11:33;10.63;;;8.32;;
48613;SDS011;34408;51.426;5.444;2024-03-06T01:14:01;12.13;;;8.60;;
48613;SDS011;34408;51.426;5.444;2024-03-06T01:16:30;11.73;;;9.02;;
48613;SDS011;34408;51.426;5.444;2024-03-06T01:19:02;10.60;;;8.13;;
48613;SDS011;34408;51.426;5.444;2024-03-06T01:21:30;11.07;;;8.18;;
48613;SDS011;34408;51.426;5.444;2024-03-06T01:23:59;10.57;;;9.07;;
48613;SDS011;34408;51.426;5.444;2024-03-06T01:26:27;11.18;;;9.10;;
48613;SDS011;34408;51.426;5.444;2024-03-06T01:28:55;12.82;;;9.63;;
48613;SDS011;34408;51.426;5.444;2024-03-06T01:31:23;10.25;;;8.15;;
48613;SDS011;34408;51.426;5.444;2024-03-06T01:33:51;11.05;;;8.32;;
48613;SDS011;34408;51.426;5.444;2024-03-06T01:36:21;13.88;;;9.00;;
48613;SDS011;34408;51.426;5.444;2024-03-06T01:38:49;16.17;;;9.38;;
48613;SDS011;34408;51.426;5.444;2024-03-06T01:41:17;11.70;;;8.60;;
48613;SDS011;34408;51.426;5.444;2024-03-06T01:43:46;12.35;;;8.57;;
48613;SDS011;34408;51.426;5.444;2024-03-06T01:46:14;12.48;;;8.60;;
48613;SDS011;34408;51.426;5.444;2024-03-06T01:48:42;12.90;;;8.82;;
48613;SDS011;34408;51.426;5.444;2024-03-06T01:51:10;12.73;;;8.63;;
48613;SDS011;34408;51.426;5.444;2024-03-06T01:53:40;11.75;;;9.05;;
48613;SDS011;34408;51.426;5.444;2024-03-06T01:56:08;12.43;;;8.82;;
48613;SDS011;34408;51.426;5.444;2024-03-06T01:58:38;9.90;;;8.20;;
48613;SDS011;34408;51.426;5.444;2024-03-06T02:01:07;12.80;;;8.02;;
48613;SDS011;34408;51.426;5.444;2024-03-06T02:03:35;10.93;;;7.68;;
48613;SDS011;34408;51.426;5.444;2024-03-06T02:06:03;14.27;;;8.65;;
48613;SDS011;34408;51.426;5.444;2024-03-06T02:08:32;10.43;;;8.10;;
48613;SDS011;34408;51.426;5.444;2024-03-06T02:11:01;10.90;;;8.15;;
48613;SDS011;34408;51.426;5.444;2024-03-06T02:13:30;11.55;;;8.23;;
48613;SDS011;34408;51.426;5.444;2024-03-06T02:15:58;11.73;;;7.90;;
48613;SDS011;34408;51.426;5.444;2024-03-06T02:18:26;13.55;;;7.93;;
48613;SDS011;34408;51.426;5.444;2024-03-06T02:20:55;11.43;;;8.13;;
48613;SDS011;34408;51.426;5.444;2024-03-06T02:23:23;13.00;;;8.88;;
48613;SDS011;34408;51.426;5.444;2024-03-06T02:25:51;9.52;;;7.63;;
48613;SDS011;34408;51.426;5.444;2024-03-06T02:28:19;11.45;;;8.57;;
48613;SDS011;34408;51.426;5.444;2024-03-06T02:30:49;10.85;;;7.90;;
48613;SDS011;34408;51.426;5.444;2024-03-06T02:33:17;14.43;;;7.68;;
48613;SDS011;34408;51.426;5.444;2024-03-06T02:35:46;11.73;;;8.60;;
48613;SDS011;34408;51.426;5.444;2024-03-06T02:38:15;11.13;;;8.10;;
48613;SDS011;34408;51.426;5.444;2024-03-06T02:40:44;14.90;;;8.23;;
48613;SDS011;34408;51.426;5.444;2024-03-06T02:43:12;10.52;;;8.05;;
48613;SDS011;34408;51.426;5.444;2024-03-06T02:45:40;14.30;;;8.38;;
48613;SDS011;34408;51.426;5.444;2024-03-06T02:48:07;12.23;;;7.80;;
48613;SDS011;34408;51.426;5.444;2024-03-06T02:50:36;11.38;;;8.48;;
48613;SDS011;34408;51.426;5.444;2024-03-06T02:53:04;10.07;;;7.38;;
48613;SDS011;34408;51.426;5.444;2024-03-06T02:55:34;9.93;;;7.72;;
48613;SDS011;34408;51.426;5.444;2024-03-06T02:58:01;13.38;;;7.90;;
48613;SDS011;34408;51.426;5.444;2024-03-06T03:00:30;11.88;;;7.93;;
48613;SDS011;34408;51.426;5.444;2024-03-06T03:02:58;10.70;;;7.78;;
48613;SDS011;34408;51.426;5.444;2024-03-06T03:05:26;12.38;;;7.47;;
48613;SDS011;34408;51.426;5.444;2024-03-06T03:07:54;10.80;;;7.95;;
48613;SDS011;34408;51.426;5.444;2024-03-06T03:10:22;11.30;;;7.65;;
48613;SDS011;34408;51.426;5.444;2024-03-06T03:12:52;12.77;;;8.18;;
48613;SDS011;34408;51.426;5.444;2024-03-06T03:15:21;11.48;;;8.10;;
48613;SDS011;34408;51.426;5.444;2024-03-06T03:17:50;10.70;;;8.00;;
48613;SDS011;34408;51.426;5.444;2024-03-06T03:20:18;10.40;;;7.68;;
48613;SDS011;34408;51.426;5.444;2024-03-06T03:22:47;12.07;;;7.53;;
48613;SDS011;34408;51.426;5.444;2024-03-06T03:25:15;11.02;;;7.88;;
48613;SDS011;34408;51.426;5.444;2024-03-06T03:27:43;11.63;;;7.68;;
48613;SDS011;34408;51.426;5.444;2024-03-06T03:30:12;11.63;;;8.40;;
48613;SDS011;34408;51.426;5.444;2024-03-06T03:32:44;11.43;;;8.40;;
48613;SDS011;34408;51.426;5.444;2024-03-06T03:35:12;9.60;;;7.30;;
48613;SDS011;34408;51.426;5.444;2024-03-06T03:37:42;11.48;;;8.15;;
48613;SDS011;34408;51.426;5.444;2024-03-06T03:40:10;9.88;;;7.20;;
48613;SDS011;34408;51.426;5.444;2024-03-06T03:42:38;10.30;;;7.32;;
48613;SDS011;34408;51.426;5.444;2024-03-06T03:45:06;9.80;;;7.43;;
48613;SDS011;34408;51.426;5.444;2024-03-06T03:47:36;11.05;;;7.57;;
48613;SDS011;34408;51.426;5.444;2024-03-06T03:50:05;9.80;;;7.20;;
48613;SDS011;34408;51.426;5.444;2024-03-06T03:52:37;11.13;;;7.15;;
48613;SDS011;34408;51.426;5.444;2024-03-06T03:55:08;12.60;;;8.48;;
48613;SDS011;34408;51.426;5.444;2024-03-06T03:57:37;10.00;;;7.70;;
48613;SDS011;34408;51.426;5.444;2024-03-06T04:00:06;8.98;;;6.85;;
48613;SDS011;34408;51.426;5.444;2024-03-06T04:02:39;10.25;;;7.07;;
48613;SDS011;34408;51.426;5.444;2024-03-06T04:05:07;9.63;;;7.32;;
48613;SDS011;34408;51.426;5.444;2024-03-06T04:07:36;11.23;;;8.30;;
48613;SDS011;34408;51.426;5.444;2024-03-06T04:10:04;11.10;;;7.50;;
48613;SDS011;34408;51.426;5.444;2024-03-06T04:12:33;10.25;;;7.60;;
48613;SDS011;34408;51.426;5.444;2024-03-06T04:15:01;10.40;;;7.85;;
48613;SDS011;34408;51.426;5.444;2024-03-06T04:17:30;10.65;;;7.18;;
48613;SDS011;34408;51.426;5.444;2024-03-06T04:19:59;10.13;;;7.35;;
48613;SDS011;34408;51.426;5.444;2024-03-06T04:22:28;12.23;;;7.97;;
48613;SDS011;34408;51.426;5.444;2024-03-06T04:24:56;9.68;;;7.03;;
48613;SDS011;34408;51.426;5.444;2024-03-06T04:27:25;9.35;;;7.45;;
48613;SDS011;34408;51.426;5.444;2024-03-06T04:29:53;9.52;;;7.15;;
48613;SDS011;34408;51.426;5.444;2024-03-06T04:32:22;10.73;;;7.25;;
48613;SDS011;34408;51.426;5.444;2024-03-06T04:34:51;10.32;;;7.63;;
48613;SDS011;34408;51.426;5.444;2024-03-06T04:37:21;10.48;;;6.97;;
48613;SDS011;34408;51.426;5.444;2024-03-06T04:39:49;9.13;;;7.45;;
48613;SDS011;34408;51.426;5.444;2024-03-06T04:42:17;12.13;;;7.22;;
48613;SDS011;34408;51.426;5.444;2024-03-06T04:44:45;8.93;;;6.93;;
48613;SDS011;34408;51.426;5.444;2024-03-06T04:47:13;10.15;;;7.22;;
48613;SDS011;34408;51.426;5.444;2024-03-06T04:49:41;12.05;;;7.57;;
48613;SDS011;34408;51.426;5.444;2024-03-06T04:52:09;8.15;;;6.25;;
48613;SDS011;34408;51.426;5.444;2024-03-06T04:54:39;9.77;;;7.57;;
48613;SDS011;34408;51.426;5.444;2024-03-06T04:57:07;11.45;;;7.18;;
48613;SDS011;34408;51.426;5.444;2024-03-06T04:59:35;13.23;;;7.38;;
48613;SDS011;34408;51.426;5.444;2024-03-06T05:02:02;9.57;;;7.45;;
48613;SDS011;34408;51.426;5.444;2024-03-06T05:04:30;9.75;;;6.80;;
48613;SDS011;34408;51.426;5.444;2024-03-06T05:07:16;12.05;;;7.75;;
48613;SDS011;34408;51.426;5.444;2024-03-06T05:10:03;10.57;;;7.15;;
48613;SDS011;34408;51.426;5.444;2024-03-06T05:12:51;9.80;;;6.18;;
48613;SDS011;34408;51.426;5.444;2024-03-06T05:15:36;10.23;;;7.25;;
48613;SDS011;34408;51.426;5.444;2024-03-06T05:18:22;9.13;;;6.93;;
48613;SDS011;34408;51.426;5.444;2024-03-06T05:21:08;9.65;;;6.55;;
48613;SDS011;34408;51.426;5.444;2024-03-06T05:23:53;9.93;;;7.10;;
48613;SDS011;34408;51.426;5.444;2024-03-06T05:26:40;9.85;;;6.88;;
48613;SDS011;34408;51.426;5.444;2024-03-06T05:29:26;13.05;;;6.95;;
48613;SDS011;34408;51.426;5.444;2024-03-06T05:32:11;11.50;;;7.30;;
48613;SDS011;34408;51.426;5.444;2024-03-06T05:34:57;10.38;;;6.88;;
48613;SDS011;34408;51.426;5.444;2024-03-06T05:37:43;9.45;;;6.32;;
48613;SDS011;34408;51.426;5.444;2024-03-06T05:40:29;8.23;;;6.10;;
48613;SDS011;34408;51.426;5.444;2024-03-06T05:43:20;10.25;;;7.57;;
48613;SDS011;34408;51.426;5.444;2024-03-06T05:46:05;8.88;;;6.20;;
48613;SDS011;34408;51.426;5.444;2024-03-06T05:48:51;12.60;;;6.93;;
48613;SDS011;34408;51.426;5.444;2024-03-06T05:51:36;9.20;;;6.20;;
48613;SDS011;34408;51.426;5.444;2024-03-06T05:54:22;10.48;;;6.50;;
48613;SDS011;34408;51.426;5.444;2024-03-06T05:57:08;9.73;;;7.20;;
48613;SDS011;34408;51.426;5.444;2024-03-06T05:59:55;10.57;;;7.10;;
48613;SDS011;34408;51.426;5.444;2024-03-06T06:02:23;9.85;;;6.95;;
48613;SDS011;34408;51.426;5.444;2024-03-06T06:04:51;7.93;;;6.22;;
48613;SDS011;34408;51.426;5.444;2024-03-06T06:07:37;9.18;;;6.35;;
48613;SDS011;34408;51.426;5.444;2024-03-06T06:10:05;10.75;;;6.75;;
48613;SDS011;34408;51.426;5.444;2024-03-06T06:12:36;12.05;;;6.63;;
48613;SDS011;34408;51.426;5.444;2024-03-06T06:15:06;7.80;;;6.15;;
48613;SDS011;34408;51.426;5.444;2024-03-06T06:17:36;7.70;;;5.90;;
48613;SDS011;34408;51.426;5.444;2024-03-06T06:20:06;9.20;;;5.93;;
48613;SDS011;34408;51.426;5.444;2024-03-06T06:22:38;8.85;;;6.50;;
48613;SDS011;34408;51.426;5.444;2024-03-06T06:25:06;9.23;;;5.90;;
48613;SDS011;34408;51.426;5.444;2024-03-06T06:27:37;10.27;;;7.00;;
48613;SDS011;34408;51.426;5.444;2024-03-06T06:30:07;9.48;;;6.72;;
48613;SDS011;34408;51.426;5.444;2024-03-06T06:32:39;11.13;;;6.93;;
48613;SDS011;34408;51.426;5.444;2024-03-06T06:35:08;10.57;;;7.13;;
48613;SDS011;34408;51.426;5.444;2024-03-06T06:37:38;8.30;;;6.25;;
48613;SDS011;34408;51.426;5.444;2024-03-06T06:40:07;9.80;;;6.60;;
48613;SDS011;34408;51.426;5.444;2024-03-06T06:42:36;9.43;;;6.40;;
48613;SDS011;34408;51.426;5.444;2024-03-06T06:45:06;9.98;;;6.90;;
48613;SDS011;34408;51.426;5.444;2024-03-06T06:47:36;8.98;;;6.53;;
48613;SDS011;34408;51.426;5.444;2024-03-06T06:50:06;10.80;;;6.28;;
48613;SDS011;34408;51.426;5.444;2024-03-06T06:52:35;9.93;;;6.38;;
48613;SDS011;34408;51.426;5.444;2024-03-06T06:55:04;7.45;;;5.97;;
48613;SDS011;34408;51.426;5.444;2024-03-06T06:57:32;9.38;;;6.05;;
48613;SDS011;34408;51.426;5.444;2024-03-06T07:00:00;9.60;;;6.38;;
48613;SDS011;34408;51.426;5.444;2024-03-06T07:02:34;10.82;;;6.55;;
48613;SDS011;34408;51.426;5.444;2024-03-06T07:05:02;10.40;;;6.85;;
48613;SDS011;34408;51.426;5.444;2024-03-06T07:07:31;9.20;;;6.82;;
48613;SDS011;34408;51.426;5.444;2024-03-06T07:09:59;8.30;;;6.47;;
48613;SDS011;34408;51.426;5.444;2024-03-06T07:12:26;7.88;;;5.68;;
48613;SDS011;34408;51.426;5.444;2024-03-06T07:14:54;9.70;;;6.28;;
48613;SDS011;34408;51.426;5.444;2024-03-06T07:17:22;8.75;;;6.45;;
48613;SDS011;34408;51.426;5.444;2024-03-06T07:19:52;11.07;;;6.57;;
48613;SDS011;34408;51.426;5.444;2024-03-06T07:22:19;10.07;;;6.70;;
48613;SDS011;34408;51.426;5.444;2024-03-06T07:24:48;9.40;;;6.78;;
48613;SDS011;34408;51.426;5.444;2024-03-06T07:27:16;10.10;;;6.15;;
48613;SDS011;34408;51.426;5.444;2024-03-06T07:29:45;8.68;;;6.07;;
48613;SDS011;34408;51.426;5.444;2024-03-06T07:32:12;9.02;;;6.20;;
48613;SDS011;34408;51.426;5.444;2024-03-06T07:34:40;10.93;;;6.50;;
48613;SDS011;34408;51.426;5.444;2024-03-06T07:37:10;9.07;;;5.57;;
48613;SDS011;34408;51.426;5.444;2024-03-06T07:39:38;13.68;;;6.20;;
48613;SDS011;34408;51.426;5.444;2024-03-06T07:42:05;8.07;;;5.57;;
48613;SDS011;34408;51.426;5.444;2024-03-06T07:44:34;8.27;;;5.22;;
48613;SDS011;34408;51.426;5.444;2024-03-06T07:47:02;10.60;;;5.60;;
48613;SDS011;34408;51.426;5.444;2024-03-06T07:49:30;9.25;;;5.28;;
48613;SDS011;34408;51.426;5.444;2024-03-06T07:51:58;9.82;;;6.13;;
48613;SDS011;34408;51.426;5.444;2024-03-06T07:54:27;9.00;;;5.63;;
48613;SDS011;34408;51.426;5.444;2024-03-06T07:56:55;8.43;;;5.43;;
48613;SDS011;34408;51.426;5.444;2024-03-06T07:59:23;8.02;;;5.57;;
48613;SDS011;34408;51.426;5.444;2024-03-06T08:01:51;7.22;;;4.88;;
48613;SDS011;34408;51.426;5.444;2024-03-06T08:04:19;7.25;;;5.47;;
48613;SDS011;34408;51.426;5.444;2024-03-06T08:06:47;6.75;;;4.88;;
48613;SDS011;34408;51.426;5.444;2024-03-06T08:09:15;7.93;;;5.25;;
48613;SDS011;34408;51.426;5.444;2024-03-06T08:11:47;6.88;;;4.72;;
48613;SDS011;34408;51.426;5.444;2024-03-06T08:14:15;7.45;;;4.63;;
48613;SDS011;34408;51.426;5.444;2024-03-06T08:16:43;10.18;;;5.10;;
48613;SDS011;34408;51.426;5.444;2024-03-06T08:19:11;12.05;;;5.78;;
48613;SDS011;34408;51.426;5.444;2024-03-06T08:21:39;6.57;;;4.53;;
48613;SDS011;34408;51.426;5.444;2024-03-06T08:24:08;7.65;;;5.00;;
48613;SDS011;34408;51.426;5.444;2024-03-06T08:26:37;6.85;;;4.45;;
48613;SDS011;34408;51.426;5.444;2024-03-06T08:29:06;6.57;;;4.07;;
48613;SDS011;34408;51.426;5.444;2024-03-06T08:31:34;6.80;;;4.72;;
48613;SDS011;34408;51.426;5.444;2024-03-06T08:34:02;7.45;;;4.95;;
48613;SDS011;34408;51.426;5.444;2024-03-06T08:36:30;6.57;;;4.25;;
48613;SDS011;34408;51.426;5.444;2024-03-06T08:38:58;7.53;;;4.55;;
48613;SDS011;34408;51.426;5.444;2024-03-06T08:41:26;6.85;;;4.18;;
48613;SDS011;34408;51.426;5.444;2024-03-06T08:43:54;7.05;;;3.97;;
48613;SDS011;34408;51.426;5.444;2024-03-06T08:46:23;7.88;;;4.63;;
48613;SDS011;34408;51.426;5.444;2024-03-06T08:48:51;6.55;;;4.22;;
48613;SDS011;34408;51.426;5.444;2024-03-06T08:51:19;6.43;;;4.30;;
48613;SDS011;34408;51.426;5.444;2024-03-06T08:53:48;6.47;;;4.30;;
48613;SDS011;34408;51.426;5.444;2024-03-06T08:56:16;7.20;;;4.50;;
48613;SDS011;34408;51.426;5.444;2024-03-06T08:58:45;6.88;;;4.18;;
48613;SDS011;34408;51.426;5.444;2024-03-06T09:01:13;7.18;;;4.38;;
48613;SDS011;34408;51.426;5.444;2024-03-06T09:03:42;6.55;;;4.45;;
48613;SDS011;34408;51.426;5.444;2024-03-06T09:06:10;7.20;;;4.40;;
48613;SDS011;34408;51.426;5.444;2024-03-06T09:08:39;8.23;;;4.00;;
48613;SDS011;34408;51.426;5.444;2024-03-06T09:11:07;7.38;;;4.00;;
48613;SDS011;34408;51.426;5.444;2024-03-06T09:13:34;7.97;;;4.10;;
48613;SDS011;34408;51.426;5.444;2024-03-06T09:16:03;6.22;;;4.43;;
48613;SDS011;34408;51.426;5.444;2024-03-06T09:18:31;6.90;;;4.50;;
48613;SDS011;34408;51.426;5.444;2024-03-06T09:21:00;6.95;;;4.68;;
48613;SDS011;34408;51.426;5.444;2024-03-06T09:23:28;5.68;;;3.35;;
48613;SDS011;34408;51.426;5.444;2024-03-06T09:25:58;8.55;;;3.97;;
48613;SDS011;34408;51.426;5.444;2024-03-06T09:28:26;6.10;;;3.95;;
48613;SDS011;34408;51.426;5.444;2024-03-06T09:30:55;7.05;;;3.67;;
48613;SDS011;34408;51.426;5.444;2024-03-06T09:33:23;7.65;;;3.92;;
48613;SDS011;34408;51.426;5.444;2024-03-06T09:35:51;7.20;;;3.88;;
48613;SDS011;34408;51.426;5.444;2024-03-06T09:38:20;6.05;;;4.18;;
48613;SDS011;34408;51.426;5.444;2024-03-06T09:40:48;7.78;;;3.75;;
48613;SDS011;34408;51.426;5.444;2024-03-06T09:43:17;5.25;;;3.45;;
48613;SDS011;34408;51.426;5.444;2024-03-06T09:45:45;7.20;;;4.03;;
48613;SDS011;34408;51.426;5.444;2024-03-06T09:48:18;5.88;;;3.20;;
48613;SDS011;34408;51.426;5.444;2024-03-06T09:50:48;5.97;;;3.78;;
48613;SDS011;34408;51.426;5.444;2024-03-06T09:53:17;5.60;;;3.97;;
48613;SDS011;34408;51.426;5.444;2024-03-06T09:55:50;5.70;;;3.75;;
48613;SDS011;34408;51.426;5.444;2024-03-06T09:58:18;6.72;;;4.03;;
48613;SDS011;34408;51.426;5.444;2024-03-06T10:00:46;4.85;;;3.42;;
48613;SDS011;34408;51.426;5.444;2024-03-06T10:03:16;6.60;;;3.80;;
48613;SDS011;34408;51.426;5.444;2024-03-06T10:05:45;9.02;;;4.00;;
48613;SDS011;34408;51.426;5.444;2024-03-06T10:08:13;5.13;;;3.80;;
48613;SDS011;34408;51.426;5.444;2024-03-06T10:10:43;7.80;;;4.20;;
48613;SDS011;34408;51.426;5.444;2024-03-06T10:13:13;7.30;;;3.85;;
48613;SDS011;34408;51.426;5.444;2024-03-06T10:15:49;4.72;;;3.17;;
48613;SDS011;34408;51.426;5.444;2024-03-06T10:18:26;6.28;;;3.50;;
48613;SDS011;34408;51.426;5.444;2024-03-06T10:20:55;7.55;;;3.53;;
48613;SDS011;34408;51.426;5.444;2024-03-06T10:23:23;6.45;;;3.95;;
48613;SDS011;34408;51.426;5.444;2024-03-06T10:25:54;8.27;;;3.90;;
48613;SDS011;34408;51.426;5.444;2024-03-06T10:28:24;4.75;;;3.47;;
48613;SDS011;34408;51.426;5.444;2024-03-06T10:31:02;7.90;;;3.63;;
48613;SDS011;34408;51.426;5.444;2024-03-06T10:33:31;6.75;;;3.42;;
48613;SDS011;34408;51.426;5.444;2024-03-06T10:35:59;5.50;;;3.63;;
48613;SDS011;34408;51.426;5.444;2024-03-06T10:38:30;5.90;;;3.47;;
48613;SDS011;34408;51.426;5.444;2024-03-06T10:41:05;6.20;;;3.58;;
48613;SDS011;34408;51.426;5.444;2024-03-06T10:43:42;4.88;;;3.05;;
48613;SDS011;34408;51.426;5.444;2024-03-06T10:46:15;5.30;;;3.13;;
48613;SDS011;34408;51.426;5.444;2024-03-06T10:48:47;7.28;;;3.65;;
48613;SDS011;34408;51.426;5.444;2024-03-06T10:51:18;4.93;;;3.08;;
48613;SDS011;34408;51.426;5.444;2024-03-06T10:53:47;6.18;;;4.20;;
48613;SDS011;34408;51.426;5.444;2024-03-06T10:56:17;7.70;;;3.42;;
48613;SDS011;34408;51.426;5.444;2024-03-06T10:58:47;4.80;;;3.28;;
48613;SDS011;34408;51.426;5.444;2024-03-06T11:01:18;6.45;;;3.65;;
48613;SDS011;34408;51.426;5.444;2024-03-06T11:03:47;6.97;;;3.65;;
48613;SDS011;34408;51.426;5.444;2024-03-06T11:06:16;4.85;;;3.47;;
48613;SDS011;34408;51.426;5.444;2024-03-06T11:08:45;4.72;;;3.13;;
48613;SDS011;34408;51.426;5.444;2024-03-06T11:11:21;5.47;;;3.78;;
48613;SDS011;34408;51.426;5.444;2024-03-06T11:13:55;6.03;;;3.20;;
48613;SDS011;34408;51.426;5.444;2024-03-06T11:16:28;5.68;;;3.22;;
48613;SDS011;34408;51.426;5.444;2024-03-06T11:19:06;5.05;;;3.03;;
48613;SDS011;34408;51.426;5.444;2024-03-06T11:21:35;4.88;;;3.00;;
48613;SDS011;34408;51.426;5.444;2024-03-06T11:24:14;5.93;;;2.85;;
48613;SDS011;34408;51.426;5.444;2024-03-06T11:26:46;4.65;;;2.85;;
48613;SDS011;34408;51.426;5.444;2024-03-06T11:29:19;4.78;;;2.85;;
48613;SDS011;34408;51.426;5.444;2024-03-06T11:32:01;5.30;;;2.80;;
48613;SDS011;34408;51.426;5.444;2024-03-06T11:34:35;6.30;;;2.53;;
48613;SDS011;34408;51.426;5.444;2024-03-06T11:37:05;3.33;;;2.50;;
48613;SDS011;34408;51.426;5.444;2024-03-06T11:39:37;5.05;;;2.45;;
48613;SDS011;34408;51.426;5.444;2024-03-06T11:42:08;6.20;;;2.45;;
48613;SDS011;34408;51.426;5.444;2024-03-06T11:44:37;9.75;;;2.72;;
48613;SDS011;34408;51.426;5.444;2024-03-06T11:47:21;5.10;;;2.80;;
48613;SDS011;34408;51.426;5.444;2024-03-06T11:49:49;6.70;;;2.78;;
48613;SDS011;34408;51.426;5.444;2024-03-06T11:52:19;5.03;;;2.55;;
48613;SDS011;34408;51.426;5.444;2024-03-06T11:54:47;4.10;;;2.50;;
48613;SDS011;34408;51.426;5.444;2024-03-06T11:57:15;4.22;;;2.25;;
48613;SDS011;34408;51.426;5.444;2024-03-06T11:59:48;3.03;;;1.80;;
48613;SDS011;34408;51.426;5.444;2024-03-06T12:02:16;4.18;;;2.40;;
48613;SDS011;34408;51.426;5.444;2024-03-06T12:04:44;2.60;;;1.70;;
48613;SDS011;34408;51.426;5.444;2024-03-06T12:07:12;4.85;;;2.30;;
48613;SDS011;34408;51.426;5.444;2024-03-06T12:09:42;4.57;;;2.35;;
48613;SDS011;34408;51.426;5.444;2024-03-06T12:12:10;4.90;;;2.40;;
48613;SDS011;34408;51.426;5.444;2024-03-06T12:14:39;3.60;;;2.20;;
48613;SDS011;34408;51.426;5.444;2024-03-06T12:17:13;6.35;;;2.20;;
48613;SDS011;34408;51.426;5.444;2024-03-06T12:19:42;4.15;;;2.30;;
48613;SDS011;34408;51.426;5.444;2024-03-06T12:22:12;4.95;;;1.95;;
48613;SDS011;34408;51.426;5.444;2024-03-06T12:24:41;6.57;;;2.40;;
48613;SDS011;34408;51.426;5.444;2024-03-06T12:27:09;3.05;;;2.00;;
48613;SDS011;34408;51.426;5.444;2024-03-06T12:29:39;5.88;;;2.33;;
48613;SDS011;34408;51.426;5.444;2024-03-06T12:32:16;5.78;;;2.10;;
48613;SDS011;34408;51.426;5.444;2024-03-06T12:34:55;3.58;;;2.17;;
48613;SDS011;34408;51.426;5.444;2024-03-06T12:37:28;4.57;;;2.45;;
48613;SDS011;34408;51.426;5.444;2024-03-06T12:40:01;3.95;;;2.58;;
48613;SDS011;34408;51.426;5.444;2024-03-06T12:42:31;4.70;;;2.05;;
48613;SDS011;34408;51.426;5.444;2024-03-06T12:44:59;6.07;;;2.95;;
48613;SDS011;34408;51.426;5.444;2024-03-06T12:47:28;3.53;;;1.80;;
48613;SDS011;34408;51.426;5.444;2024-03-06T12:49:56;2.17;;;1.55;;
48613;SDS011;34408;51.426;5.444;2024-03-06T12:52:24;6.75;;;1.83;;
48613;SDS011;34408;51.426;5.444;2024-03-06T12:54:52;6.28;;;2.05;;
48613;SDS011;34408;51.426;5.444;2024-03-06T12:57:20;2.67;;;2.00;;
48613;SDS011;34408;51.426;5.444;2024-03-06T12:59:48;3.00;;;1.58;;
48613;SDS011;34408;51.426;5.444;2024-03-06T13:02:16;3.00;;;1.90;;
48613;SDS011;34408;51.426;5.444;2024-03-06T13:04:46;3.90;;;2.50;;
48613;SDS011;34408;51.426;5.444;2024-03-06T13:07:14;3.15;;;1.67;;
48613;SDS011;34408;51.426;5.444;2024-03-06T13:09:41;4.25;;;1.60;;
48613;SDS011;34408;51.426;5.444;2024-03-06T13:12:10;1.63;;;1.35;;
48613;SDS011;34408;51.426;5.444;2024-03-06T13:14:38;3.75;;;1.77;;
48613;SDS011;34408;51.426;5.444;2024-03-06T13:17:06;3.35;;;1.42;;
48613;SDS011;34408;51.426;5.444;2024-03-06T13:19:34;2.65;;;1.60;;
48613;SDS011;34408;51.426;5.444;2024-03-06T13:22:03;2.08;;;1.52;;
48613;SDS011;34408;51.426;5.444;2024-03-06T13:24:33;2.80;;;1.50;;
48613;SDS011;34408;51.426;5.444;2024-03-06T13:27:03;4.85;;;1.73;;
48613;SDS011;34408;51.426;5.444;2024-03-06T13:29:31;3.30;;;1.50;;
48613;SDS011;34408;51.426;5.444;2024-03-06T13:31:59;3.42;;;1.55;;
48613;SDS011;34408;51.426;5.444;2024-03-06T13:34:26;3.80;;;2.22;;
48613;SDS011;34408;51.426;5.444;2024-03-06T13:36:57;7.80;;;1.70;;
48613;SDS011;34408;51.426;5.444;2024-03-06T13:39:26;2.53;;;1.52;;
48613;SDS011;34408;51.426;5.444;2024-03-06T13:41:54;2.85;;;1.58;;
48613;SDS011;34408;51.426;5.444;2024-03-06T13:44:22;3.75;;;2.05;;
48613;SDS011;34408;51.426;5.444;2024-03-06T13:46:50;3.95;;;1.85;;
48613;SDS011;34408;51.426;5.444;2024-03-06T13:49:33;3.40;;;1.90;;
48613;SDS011;34408;51.426;5.444;2024-03-06T13:52:03;3.20;;;1.67;;
48613;SDS011;34408;51.426;5.444;2024-03-06T13:54:33;2.60;;;1.65;;
48613;SDS011;34408;51.426;5.444;2024-03-06T13:57:01;6.05;;;1.75;;
48613;SDS011;34408;51.426;5.444;2024-03-06T13:59:30;3.00;;;1.70;;
48613;SDS011;34408;51.426;5.444;2024-03-06T14:01:58;5.30;;;1.63;;
48613;SDS011;34408;51.426;5.444;2024-03-06T14:04:27;3.47;;;1.70;;
48613;SDS011;34408;51.426;5.444;2024-03-06T14:06:55;2.22;;;1.67;;
48613;SDS011;34408;51.426;5.444;2024-03-06T14:09:25;3.30;;;1.95;;
48613;SDS011;34408;51.426;5.444;2024-03-06T14:11:54;3.65;;;2.00;;
48613;SDS011;34408;51.426;5.444;2024-03-06T14:14:23;2.95;;;1.73;;
48613;SDS011;34408;51.426;5.444;2024-03-06T14:16:51;4.05;;;1.83;;
48613;SDS011;34408;51.426;5.444;2024-03-06T14:19:19;3.90;;;2.05;;
48613;SDS011;34408;51.426;5.444;2024-03-06T14:21:48;3.72;;;2.38;;
48613;SDS011;34408;51.426;5.444;2024-03-06T14:24:16;4.82;;;1.92;;
48613;SDS011;34408;51.426;5.444;2024-03-06T14:26:44;4.40;;;2.05;;
48613;SDS011;34408;51.426;5.444;2024-03-06T14:29:14;3.85;;;2.40;;
48613;SDS011;34408;51.426;5.444;2024-03-06T14:31:42;5.10;;;2.42;;
48613;SDS011;34408;51.426;5.444;2024-03-06T14:34:10;4.72;;;2.67;;
48613;SDS011;34408;51.426;5.444;2024-03-06T14:36:38;3.30;;;1.98;;
48613;SDS011;34408;51.426;5.444;2024-03-06T14:39:08;5.13;;;2.55;;
48613;SDS011;34408;51.426;5.444;2024-03-06T14:41:37;4.50;;;2.40;;
48613;SDS011;34408;51.426;5.444;2024-03-06T14:44:06;5.38;;;2.22;;
48613;SDS011;34408;51.426;5.444;2024-03-06T14:46:35;6.07;;;2.45;;
48613;SDS011;34408;51.426;5.444;2024-03-06T14:49:03;4.65;;;2.50;;
48613;SDS011;34408;51.426;5.444;2024-03-06T14:51:31;8.75;;;2.40;;
48613;SDS011;34408;51.426;5.444;2024-03-06T14:53:59;4.15;;;1.90;;
48613;SDS011;34408;51.426;5.444;2024-03-06T14:56:27;7.75;;;2.60;;
48613;SDS011;34408;51.426;5.444;2024-03-06T14:58:57;4.90;;;2.35;;
48613;SDS011;34408;51.426;5.444;2024-03-06T15:01:25;3.45;;;2.28;;